Time;durP1;ratioP1;P1;durP2;ratioP2;P2;SDS_P1;SDS_P2;PMS_P1;PMS_P2;Temp;Humidity;BMP_temperature;BMP_pressure;BME280_temperature;BME280_humidity;BME280_pressure;Samples;Min_cycle;Max_cycle;Signal;HPM_P1;HPM_P2
2021/06/19 00:00:36;;;;;;;23.60;21.20;;;26.20;1.00;;;;;;6137857;23;20217;-72
2021/06/19 00:03:03;;;;;;;20.83;19.10;;;26.10;1.00;;;;;;6138053;23;20422;-71
2021/06/19 00:05:29;;;;;;;21.47;19.77;;;26.20;1.00;;;;;;6136459;23;20467;-72
2021/06/19 00:07:56;;;;;;;21.07;19.40;;;26.20;1.00;;;;;;6151390;23;20391;-71
2021/06/19 00:10:22;;;;;;;22.00;20.00;;;26.10;1.00;;;;;;6151334;23;20398;-72
2021/06/19 00:12:50;;;;;;;20.67;19.07;;;26.40;1.00;;;;;;6151355;23;20413;-72
2021/06/19 00:15:18;;;;;;;22.37;20.17;;;26.40;1.00;;;;;;6126756;23;20413;-71
2021/06/19 00:17:44;;;;;;;21.80;20.07;;;25.90;2.80;;;;;;6151219;23;20438;-71
2021/06/19 00:20:14;;;;;;;21.07;19.27;;;25.70;99.90;;;;;;6137604;23;20428;-71
2021/06/19 00:22:40;;;;;;;20.30;18.60;;;25.80;99.90;;;;;;6137874;23;20423;-71
2021/06/19 00:25:08;;;;;;;19.80;18.20;;;25.90;99.90;;;;;;6151141;23;20460;-71
2021/06/19 00:27:34;;;;;;;19.43;17.50;;;26.20;21.40;;;;;;6137649;23;20389;-71
2021/06/19 00:30:00;;;;;;;19.73;18.00;;;26.30;1.00;;;;;;6127604;23;20450;-71
2021/06/19 00:32:26;;;;;;;19.70;18.20;;;26.30;99.90;;;;;;6137753;23;20450;-71
2021/06/19 00:34:52;;;;;;;20.80;19.20;;;26.50;99.90;;;;;;6128489;23;20174;-72
2021/06/19 00:37:17;;;;;;;20.20;18.67;;;26.70;99.90;;;;;;6137818;23;20410;-72
2021/06/19 00:39:43;;;;;;;18.47;16.97;;;26.60;1.00;;;;;;6137976;23;20155;-71
2021/06/19 00:42:09;;;;;;;20.33;18.80;;;26.50;99.90;;;;;;6138073;23;20186;-70
2021/06/19 00:44:34;;;;;;;20.57;18.97;;;26.40;99.90;;;;;;6151528;23;20588;-70
2021/06/19 00:47:00;;;;;;;19.60;18.10;;;26.30;1.00;;;;;;6137636;23;20151;-72
2021/06/19 00:49:26;;;;;;;20.90;19.07;;;26.50;99.90;;;;;;6137740;23;20177;-71
2021/06/19 00:51:52;;;;;;;21.00;19.40;;;26.70;1.00;;;;;;6128353;23;20386;-71
2021/06/19 00:54:19;;;;;;;21.50;19.80;;;26.40;1.00;;;;;;6137802;23;20387;-71
2021/06/19 00:56:46;;;;;;;21.97;20.00;;;26.50;1.00;;;;;;6137603;23;20458;-71
2021/06/19 00:59:13;;;;;;;20.87;19.27;;;26.50;1.00;;;;;;6150930;23;20478;-71
2021/06/19 01:01:39;;;;;;;21.93;20.13;;;26.60;1.00;;;;;;6137631;23;20395;-71
2021/06/19 01:04:08;;;;;;;22.27;20.50;;;26.70;99.90;;;;;;6137465;23;20419;-71
2021/06/19 01:06:34;;;;;;;22.47;20.57;;;26.70;99.90;;;;;;6137608;23;20161;-70
2021/06/19 01:09:02;;;;;;;21.57;19.60;;;26.50;99.90;;;;;;6126226;23;20401;-71
2021/06/19 01:11:30;;;;;;;22.10;20.40;;;26.40;1.00;;;;;;6150946;23;20423;-71
2021/06/19 01:13:55;;;;;;;24.30;22.17;;;26.50;1.00;;;;;;6150922;23;20394;-71
2021/06/19 01:16:21;;;;;;;22.30;20.60;;;26.60;1.00;;;;;;6137380;23;20788;-71
2021/06/19 01:18:48;;;;;;;22.53;20.80;;;26.70;1.00;;;;;;6150666;23;20257;-71
2021/06/19 01:21:14;;;;;;;24.93;22.93;;;26.50;1.00;;;;;;6136332;23;20151;-71
2021/06/19 01:23:40;;;;;;;25.00;22.90;;;26.00;99.90;;;;;;6137209;23;20422;-71
2021/06/19 01:26:06;;;;;;;26.07;23.80;;;25.80;1.00;;;;;;6127771;23;20379;-71
2021/06/19 01:28:32;;;;;;;24.97;22.97;;;26.10;1.00;;;;;;6136975;23;20401;-71
2021/06/19 01:31:00;;;;;;;26.13;23.93;;;26.30;99.90;;;;;;6137266;23;20178;-71
2021/06/19 01:33:26;;;;;;;26.20;24.00;;;25.80;1.00;;;;;;6137172;23;20173;-71
2021/06/19 01:35:52;;;;;;;27.20;25.00;;;25.60;1.00;;;;;;6150676;23;20402;-71
2021/06/19 01:38:18;;;;;;;25.40;23.30;;;25.50;1.00;;;;;;6136953;23;20229;-71
2021/06/19 01:40:44;;;;;;;28.00;25.77;;;25.80;1.00;;;;;;6137354;23;20238;-71
2021/06/19 01:43:10;;;;;;;26.50;24.23;;;25.90;1.00;;;;;;6137161;23;20453;-71
2021/06/19 01:45:35;;;;;;;27.73;25.53;;;25.50;1.00;;;;;;6150903;23;20159;-72
2021/06/19 01:48:07;;;;;;;29.63;26.63;;;25.40;1.00;;;;;;6137119;23;20165;-72
2021/06/19 01:50:34;;;;;;;28.80;25.90;;;25.70;1.00;;;;;;6137293;23;20454;-72
2021/06/19 01:53:01;;;;;;;29.00;26.33;;;25.60;1.00;;;;;;6150609;23;20430;-72
2021/06/19 01:55:27;;;;;;;30.03;27.43;;;25.50;1.00;;;;;;6150873;23;20402;-72
2021/06/19 01:57:55;;;;;;;31.47;28.67;;;25.30;44.00;;;;;;6150434;23;20495;-72
2021/06/19 02:00:25;;;;;;;29.70;27.13;;;25.40;77.80;;;;;;6137015;23;20390;-72
2021/06/19 02:02:52;;;;;;;31.80;29.20;;;25.40;52.00;;;;;;6150681;23;20434;-72
2021/06/19 02:05:20;;;;;;;30.70;27.93;;;25.30;99.90;;;;;;6127817;23;20406;-72
2021/06/19 02:07:55;;;;;;;29.70;27.30;;;25.30;99.90;;;;;;6137069;23;20394;-72
2021/06/19 02:10:24;;;;;;;30.63;27.93;;;25.20;99.90;;;;;;6150508;23;20474;-72
2021/06/19 02:12:49;;;;;;;29.57;27.07;;;25.20;99.90;;;;;;6150511;23;20398;-72
2021/06/19 02:15:16;;;;;;;30.37;27.63;;;25.20;99.90;;;;;;6137354;23;20674;-72
2021/06/19 02:17:42;;;;;;;30.27;27.60;;;25.40;96.30;;;;;;6137089;23;20155;-72
2021/06/19 02:20:10;;;;;;;30.53;28.00;;;25.60;26.40;;;;;;6137014;23;20478;-72
2021/06/19 02:22:37;;;;;;;31.77;28.87;;;25.60;1.00;;;;;;6137142;23;20876;-72
2021/06/19 02:25:09;;;;;;;30.87;28.17;;;25.50;27.20;;;;;;6150317;23;20900;-72
2021/06/19 02:27:35;;;;;;;29.20;26.80;;;25.70;1.00;;;;;;6137210;23;20386;-72
2021/06/19 02:30:01;;;;;;;28.70;26.10;;;25.70;1.00;;;;;;6152187;23;20402;-72
2021/06/19 02:32:27;;;;;;;30.57;27.87;;;25.70;1.00;;;;;;6152153;23;20398;-72
2021/06/19 02:34:52;;;;;;;30.60;27.90;;;25.70;1.00;;;;;;6127700;23;20189;-72
2021/06/19 02:37:19;;;;;;;29.07;26.67;;;25.70;1.00;;;;;;6138656;23;20386;-72
2021/06/19 02:39:45;;;;;;;30.60;27.90;;;25.70;1.00;;;;;;6152107;23;20171;-72
2021/06/19 02:42:11;;;;;;;29.30;26.77;;;25.70;1.00;;;;;;6138666;23;22324;-72
2021/06/19 02:44:37;;;;;;;29.50;27.03;;;25.80;1.00;;;;;;6152406;23;20167;-72
2021/06/19 02:47:03;;;;;;;32.87;29.90;;;25.90;1.00;;;;;;6152044;23;20607;-72
2021/06/19 02:49:30;;;;;;;30.00;27.60;;;25.80;1.00;;;;;;6152040;23;20461;-72
2021/06/19 02:51:56;;;;;;;28.30;25.90;;;25.70;1.00;;;;;;6152293;23;20461;-72
2021/06/19 02:54:22;;;;;;;31.40;28.73;;;25.80;1.00;;;;;;6138905;23;20398;-72
2021/06/19 02:56:48;;;;;;;30.93;28.23;;;25.60;1.00;;;;;;6152091;23;20395;-72
2021/06/19 02:59:13;;;;;;;30.27;27.67;;;25.60;1.00;;;;;;6152003;23;20221;-72
2021/06/19 03:01:39;;;;;;;30.10;27.40;;;25.70;1.00;;;;;;6127632;23;20159;-72
2021/06/19 03:04:05;;;;;;;30.33;27.73;;;25.70;1.00;;;;;;6152056;23;20201;-72
2021/06/19 03:06:31;;;;;;;29.63;26.83;;;25.80;1.00;;;;;;6127466;23;20302;-72
2021/06/19 03:09:01;;;;;;;29.07;26.47;;;25.80;1.00;;;;;;6152160;23;20403;-72
2021/06/19 03:11:27;;;;;;;30.00;27.30;;;25.90;1.00;;;;;;6128984;23;20143;-72
2021/06/19 03:13:53;;;;;;;28.90;26.60;;;25.80;1.00;;;;;;6152083;23;20477;-72
2021/06/19 03:16:19;;;;;;;30.50;27.90;;;25.80;1.00;;;;;;6138913;23;20505;-72
2021/06/19 03:18:44;;;;;;;27.33;25.13;;;26.10;1.00;;;;;;6138576;23;20159;-72
2021/06/19 03:21:10;;;;;;;30.70;27.80;;;26.30;1.00;;;;;;6138910;23;20163;-72
2021/06/19 03:23:36;;;;;;;30.10;27.63;;;26.40;1.00;;;;;;6151784;23;20195;-72
2021/06/19 03:26:01;;;;;;;27.67;25.43;;;26.40;99.90;;;;;;6138730;23;20147;-72
2021/06/19 03:28:27;;;;;;;28.27;26.00;;;26.60;99.90;;;;;;6138444;23;20151;-71
2021/06/19 03:30:53;;;;;;;27.17;25.07;;;26.40;99.90;;;;;;6138662;23;20151;-71
2021/06/19 03:33:19;;;;;;;27.67;25.37;;;26.40;99.90;;;;;;6152173;23;20159;-71
2021/06/19 03:35:47;;;;;;;28.27;25.97;;;26.50;99.90;;;;;;6127602;23;20480;-71
2021/06/19 03:38:12;;;;;;;26.63;24.40;;;26.60;99.90;;;;;;6127046;23;20398;-71
2021/06/19 03:40:41;;;;;;;27.90;25.67;;;26.50;99.90;;;;;;6151586;23;20683;-71
2021/06/19 03:43:07;;;;;;;28.43;26.13;;;26.50;99.90;;;;;;6138417;23;20644;-71
2021/06/19 03:45:35;;;;;;;27.30;25.10;;;26.40;99.90;;;;;;6138458;23;20390;-71
2021/06/19 03:48:01;;;;;;;25.50;23.40;;;26.60;99.90;;;;;;6128529;23;20387;-71
2021/06/19 03:50:29;;;;;;;28.80;26.43;;;26.70;99.90;;;;;;6138503;23;20402;-71
2021/06/19 03:52:57;;;;;;;28.37;25.83;;;26.90;96.60;;;;;;6138170;23;20155;-72
2021/06/19 03:55:23;;;;;;;28.43;26.00;;;26.60;31.40;;;;;;6138298;23;20485;-71
2021/06/19 03:57:49;;;;;;;27.87;25.43;;;26.60;99.90;;;;;;6138098;23;20413;-72
2021/06/19 04:00:17;;;;;;;28.27;25.87;;;26.60;99.90;;;;;;6151069;23;20402;-72
2021/06/19 04:02:44;;;;;;;27.37;24.97;;;27.00;99.90;;;;;;6151197;23;20193;-72
2021/06/19 04:05:11;;;;;;;27.53;25.20;;;27.30;1.00;;;;;;6151792;23;20410;-72
2021/06/19 04:07:37;;;;;;;28.53;26.07;;;27.30;99.90;;;;;;6138018;23;20449;-72
2021/06/19 04:10:04;;;;;;;28.57;26.17;;;27.10;1.00;;;;;;6151369;23;20395;-72
2021/06/19 04:12:30;;;;;;;29.77;27.23;;;26.70;1.00;;;;;;6126986;23;20842;-72
2021/06/19 04:14:56;;;;;;;27.83;25.53;;;26.60;17.30;;;;;;6138169;23;20398;-72
2021/06/19 04:17:21;;;;;;;28.10;25.73;;;26.60;99.90;;;;;;6138020;23;20510;-71
2021/06/19 04:19:47;;;;;;;27.70;25.23;;;26.90;1.00;;;;;;6137909;23;20226;-73
2021/06/19 04:22:13;;;;;;;26.17;23.97;;;27.20;1.00;;;;;;6126747;23;20173;-72
2021/06/19 04:24:40;;;;;;;26.50;24.50;;;27.30;1.00;;;;;;6127984;23;20175;-72
2021/06/19 04:27:14;;;;;;;26.80;24.40;;;27.40;99.90;;;;;;6151234;23;20391;-72
2021/06/19 04:29:41;;;;;;;26.37;24.10;;;27.30;80.70;;;;;;6137635;23;20374;-72
2021/06/19 04:32:07;;;;;;;26.90;24.60;;;27.20;99.90;;;;;;6151375;23;20449;-72
2021/06/19 04:34:33;;;;;;;28.23;25.63;;;27.00;1.00;;;;;;6137658;23;20429;-71
2021/06/19 04:36:58;;;;;;;25.90;23.83;;;27.00;99.90;;;;;;6137587;23;20383;-71
2021/06/19 04:39:24;;;;;;;26.83;24.43;;;27.10;45.90;;;;;;6126339;23;20159;-71
2021/06/19 04:41:56;;;;;;;27.60;25.30;;;27.30;1.00;;;;;;6137849;23;20151;-71
2021/06/19 04:44:40;;;;;;;28.50;26.20;;;27.60;99.90;;;;;;6150937;23;20275;-71
2021/06/19 04:47:06;;;;;;;27.00;24.60;;;27.70;99.90;;;;;;6137544;23;20826;-72
2021/06/19 04:49:32;;;;;;;27.40;25.10;;;28.00;99.90;;;;;;6137507;23;20453;-72
2021/06/19 04:51:58;;;;;;;29.13;26.63;;;28.20;1.00;;;;;;6137413;23;20378;-72
2021/06/19 04:54:24;;;;;;;27.87;25.40;;;28.20;12.00;;;;;;6137491;23;20403;-73
2021/06/19 04:56:56;;;;;;;26.70;24.37;;;28.10;1.00;;;;;;6137300;23;20165;-72
2021/06/19 04:59:24;;;;;;;26.07;23.77;;;28.50;99.90;;;;;;6127249;23;20405;-72
2021/06/19 05:01:50;;;;;;;25.53;23.17;;;28.90;99.90;;;;;;6137533;23;20379;-72
2021/06/19 05:04:16;;;;;;;24.53;22.53;;;29.30;1.00;;;;;;6137646;23;20502;-72
2021/06/19 05:06:42;;;;;;;23.93;22.00;;;29.60;99.90;;;;;;6128008;23;20386;-72
2021/06/19 05:09:08;;;;;;;22.77;20.97;;;30.00;1.00;;;;;;6137180;23;20158;-72
2021/06/19 05:11:35;;;;;;;23.20;21.13;;;30.20;1.00;;;;;;6150939;23;20167;-72
2021/06/19 05:14:01;;;;;;;21.37;19.17;;;30.60;1.00;;;;;;6137273;23;20390;-72
2021/06/19 05:16:27;;;;;;;22.73;20.73;;;30.60;99.90;;;;;;6126108;23;20402;-72
2021/06/19 05:18:52;;;;;;;22.10;20.10;;;30.30;99.90;;;;;;6137307;23;20402;-72
2021/06/19 05:21:18;;;;;;;19.93;18.43;;;30.00;1.00;;;;;;6137471;23;20395;-72
2021/06/19 05:23:44;;;;;;;20.20;18.23;;;30.00;1.00;;;;;;6125933;23;20206;-70
2021/06/19 05:26:10;;;;;;;21.13;19.10;;;29.60;1.00;;;;;;6150821;23;20407;-71
2021/06/19 05:28:35;;;;;;;19.03;17.10;;;29.10;1.00;;;;;;6137181;23;20183;-71
2021/06/19 05:31:03;;;;;;;19.20;17.40;;;28.80;1.00;;;;;;6137428;23;20162;-71
2021/06/19 05:33:29;;;;;;;22.37;20.27;;;28.70;99.90;;;;;;6137230;23;20169;-72
2021/06/19 05:35:55;;;;;;;19.87;18.13;;;28.70;99.90;;;;;;6150923;23;20417;-72
2021/06/19 05:38:20;;;;;;;19.27;17.73;;;29.70;1.00;;;;;;6137067;23;20402;-72
2021/06/19 05:40:46;;;;;;;19.20;17.50;;;31.40;86.10;;;;;;6150767;23;20167;-72
2021/06/19 05:43:12;;;;;;;20.13;18.33;;;32.70;1.00;;;;;;6150741;23;20194;-72
2021/06/19 05:45:38;;;;;;;20.20;18.50;;;33.70;1.00;;;;;;6137311;23;20229;-72
2021/06/19 05:48:04;;;;;;;19.33;17.63;;;33.60;1.00;;;;;;6137444;23;20162;-72
2021/06/19 05:50:30;;;;;;;19.77;17.73;;;33.20;1.00;;;;;;6126042;23;20169;-72
2021/06/19 05:52:56;;;;;;;19.63;18.00;;;33.30;1.00;;;;;;6126113;23;20410;-72
2021/06/19 05:55:22;;;;;;;20.13;18.43;;;33.00;1.00;;;;;;6136986;23;20250;-71
2021/06/19 05:57:48;;;;;;;22.03;19.90;;;31.20;1.00;;;;;;6101625;23;20226;-71
2021/06/19 06:00:14;;;;;;;21.10;19.30;;;30.40;99.90;;;;;;6136675;23;20402;-71
2021/06/19 06:02:41;;;;;;;22.13;19.97;;;30.60;99.90;;;;;;6136946;23;20187;-72
2021/06/19 06:05:09;;;;;;;20.50;18.80;;;30.30;99.90;;;;;;6138690;23;20489;-72
2021/06/19 06:07:35;;;;;;;21.20;19.00;;;30.50;99.90;;;;;;6129093;23;20780;-72
2021/06/19 06:10:02;;;;;;;19.30;17.50;;;31.50;1.00;;;;;;6138702;23;20515;-72
2021/06/19 06:12:27;;;;;;;20.30;18.40;;;32.30;1.00;;;;;;6138775;23;20193;-72
2021/06/19 06:14:53;;;;;;;19.33;17.63;;;33.10;1.00;;;;;;6151589;23;20402;-72
2021/06/19 06:17:19;;;;;;;18.17;16.40;;;33.50;1.00;;;;;;6152007;23;20542;-72
2021/06/19 06:19:44;;;;;;;18.17;15.80;;;33.70;1.00;;;;;;6138275;23;20162;-72
2021/06/19 06:22:10;;;;;;;16.90;15.50;;;34.10;1.00;;;;;;6138244;23;20233;-72
2021/06/19 06:24:36;;;;;;;17.43;15.73;;;33.40;1.00;;;;;;6138399;23;20181;-71
2021/06/19 06:27:02;;;;;;;16.87;15.17;;;31.80;1.00;;;;;;6127472;23;20257;-71
2021/06/19 06:29:28;;;;;;;16.80;15.30;;;31.90;1.00;;;;;;6138192;23;20150;-72
2021/06/19 06:31:53;;;;;;;16.37;14.70;;;32.60;1.00;;;;;;6138532;23;20401;-72
2021/06/19 06:34:20;;;;;;;14.60;13.27;;;33.20;1.00;;;;;;6127413;23;20159;-71
2021/06/19 06:36:46;;;;;;;14.60;13.13;;;34.60;1.00;;;;;;6151735;23;20634;-71
2021/06/19 06:39:12;;;;;;;15.87;14.10;;;35.30;1.00;;;;;;6138382;23;20390;-70
2021/06/19 06:41:38;;;;;;;15.07;13.17;;;35.40;1.00;;;;;;6138480;23;20494;-71
2021/06/19 06:44:04;;;;;;;12.53;11.53;;;35.70;1.00;;;;;;6138434;23;20472;-71
2021/06/19 06:46:30;;;;;;;13.57;12.30;;;35.70;1.00;;;;;;6138402;23;20161;-71
2021/06/19 06:48:55;;;;;;;12.10;11.10;;;35.70;1.00;;;;;;6138282;23;20394;-72
2021/06/19 06:51:21;;;;;;;11.67;10.57;;;36.20;1.00;;;;;;6138074;23;20161;-72
2021/06/19 06:53:47;;;;;;;11.27;10.27;;;36.00;1.00;;;;;;6151523;23;20167;-66
2021/06/19 06:56:12;;;;;;;10.93;9.93;;;35.00;1.00;;;;;;6128866;23;20241;-66
2021/06/19 06:58:38;;;;;;;11.83;10.80;;;33.60;1.00;;;;;;6138312;23;20165;-67
2021/06/19 07:01:04;;;;;;;10.53;9.73;;;34.10;1.00;;;;;;6128204;23;20183;-67
2021/06/19 07:03:29;;;;;;;10.27;9.50;;;35.80;1.00;;;;;;6138098;23;20721;-67
2021/06/19 07:05:55;;;;;;;9.67;8.60;;;37.00;1.00;;;;;;6138036;23;20306;-67
2021/06/19 07:08:21;;;;;;;9.30;8.40;;;36.30;1.00;;;;;;6128225;23;20238;-65
2021/06/19 07:10:46;;;;;;;7.90;7.20;;;35.20;1.00;;;;;;6137898;23;20181;-65
2021/06/19 07:13:12;;;;;;;9.57;8.47;;;35.10;1.00;;;;;;6137876;23;20162;-65
2021/06/19 07:15:38;;;;;;;8.83;7.20;;;35.70;1.00;;;;;;6137950;23;20585;-65
2021/06/19 07:18:04;;;;;;;7.90;7.20;;;35.40;1.00;;;;;;6128348;23;20186;-65
2021/06/19 07:20:30;;;;;;;7.27;6.10;;;36.40;1.00;;;;;;6137566;23;20243;-65
2021/06/19 07:22:56;;;;;;;5.97;5.47;;;37.40;1.00;;;;;;6136741;23;20729;-65
2021/06/19 07:25:23;;;;;;;6.87;6.17;;;36.40;1.00;;;;;;6137678;23;20501;-64
2021/06/19 07:27:53;;;;;;;6.07;5.07;;;36.10;1.00;;;;;;6151114;23;20395;-64
2021/06/19 07:30:22;;;;;;;5.83;5.20;;;35.50;1.00;;;;;;6151291;23;20468;-65
2021/06/19 07:32:57;;;;;;;5.67;5.17;;;35.20;1.00;;;;;;6137952;23;20934;-68
2021/06/19 07:35:27;;;;;;;8.03;5.30;;;33.90;1.00;;;;;;6136877;23;20454;-68
2021/06/19 07:37:53;;;;;;;5.60;5.10;;;33.40;1.00;;;;;;6136896;23;20390;-65
2021/06/19 07:40:19;;;;;;;5.70;5.30;;;32.90;1.00;;;;;;6151277;23;20481;-65
2021/06/19 07:42:44;;;;;;;5.53;5.13;;;32.10;1.00;;;;;;6151186;23;20440;-68
2021/06/19 07:45:10;;;;;;;5.53;5.03;;;31.30;1.00;;;;;;6138614;23;20371;-63
2021/06/19 07:47:36;;;;;;;5.43;4.93;;;30.60;1.00;;;;;;6128143;23;20325;-66
2021/06/19 07:50:04;;;;;;;5.87;5.33;;;30.10;1.00;;;;;;6128678;23;20143;-66
2021/06/19 07:52:29;;;;;;;6.50;5.80;;;29.90;1.00;;;;;;6137359;23;20453;-69
2021/06/19 07:54:55;;;;;;;5.10;4.70;;;30.10;1.00;;;;;;6138396;23;20664;-76
2021/06/19 07:57:20;;;;;;;6.17;5.67;;;30.30;1.00;;;;;;6137643;23;20162;-71
2021/06/19 07:59:46;;;;;;;5.60;5.00;;;30.30;1.00;;;;;;6150776;23;20279;-72
2021/06/19 08:02:12;;;;;;;6.17;5.63;;;30.00;1.00;;;;;;6136724;23;20160;-73
2021/06/19 08:04:37;;;;;;;4.37;4.07;;;30.20;1.00;;;;;;6136952;23;20147;-73
2021/06/19 08:07:04;;;;;;;5.00;4.70;;;30.40;1.00;;;;;;6126681;23;20166;-73
2021/06/19 08:09:30;;;;;;;4.20;3.80;;;30.50;1.00;;;;;;6138004;23;20169;-73
2021/06/19 08:11:56;;;;;;;5.13;3.63;;;30.50;1.00;;;;;;6137971;23;20473;-72
2021/06/19 08:14:22;;;;;;;4.03;3.70;;;30.50;1.00;;;;;;6136552;23;20174;-73
2021/06/19 08:16:51;;;;;;;6.27;3.73;;;30.10;1.00;;;;;;6128009;23;20830;-73
2021/06/19 08:19:16;;;;;;;3.40;3.10;;;29.80;1.00;;;;;;6150646;23;20212;-72
2021/06/19 08:21:42;;;;;;;3.60;2.93;;;29.60;1.00;;;;;;6150589;23;20394;-72
2021/06/19 08:24:09;;;;;;;3.03;2.83;;;29.70;1.00;;;;;;6135645;23;20311;-74
2021/06/19 08:26:37;;;;;;;6.33;5.03;;;29.90;1.00;;;;;;6137312;23;20377;-73
2021/06/19 08:29:07;;;;;;;3.90;3.50;;;29.90;1.00;;;;;;6136876;23;20387;-73
2021/06/19 08:31:37;;;;;;;3.10;2.90;;;30.20;1.00;;;;;;6137546;23;20388;-73
2021/06/19 08:34:04;;;;;;;3.00;2.27;;;29.60;1.00;;;;;;6136456;23;20371;-73
2021/06/19 08:36:30;;;;;;;3.33;3.03;;;29.60;1.00;;;;;;6136925;23;20403;-70
2021/06/19 08:38:56;;;;;;;2.67;2.40;;;29.60;1.00;;;;;;6127332;23;20418;-70
2021/06/19 08:41:21;;;;;;;3.00;2.70;;;29.70;1.00;;;;;;6137013;23;20449;-71
2021/06/19 08:43:47;;;;;;;4.00;2.47;;;30.10;1.00;;;;;;6127540;23;20437;-71
2021/06/19 08:46:13;;;;;;;2.60;2.30;;;30.20;1.00;;;;;;6136859;23;20237;-70
2021/06/19 08:48:39;;;;;;;3.50;2.73;;;30.30;1.00;;;;;;6137008;23;20147;-71
2021/06/19 08:51:06;;;;;;;7.20;2.70;;;30.40;1.00;;;;;;6127160;23;20697;-71
2021/06/19 08:53:33;;;;;;;3.33;2.60;;;30.20;1.00;;;;;;6136777;23;20856;-70
2021/06/19 08:55:58;;;;;;;3.17;2.67;;;30.20;1.00;;;;;;6136814;23;20405;-70
2021/06/19 08:58:24;;;;;;;3.53;3.10;;;29.80;1.00;;;;;;6137051;23;20697;-73
2021/06/19 09:00:50;;;;;;;3.73;3.10;;;29.70;1.00;;;;;;6136940;23;20275;-73
2021/06/19 09:03:24;;;;;;;2.70;2.50;;;29.90;1.00;;;;;;6136646;23;20598;-73
2021/06/19 09:05:51;;;;;;;3.67;3.13;;;30.10;1.00;;;;;;6137073;23;20573;-73
2021/06/19 09:08:19;;;;;;;3.43;3.13;;;29.90;1.00;;;;;;6149726;23;20402;-73
2021/06/19 09:10:44;;;;;;;3.30;2.83;;;30.00;1.00;;;;;;6136754;23;20386;-72
2021/06/19 09:13:13;;;;;;;4.97;3.20;;;30.00;1.00;;;;;;6136784;23;20391;-72
2021/06/19 09:15:50;;;;;;;3.80;2.70;;;30.30;1.00;;;;;;6136670;23;20158;-72
2021/06/19 09:18:19;;;;;;;3.13;2.90;;;30.30;1.00;;;;;;6149997;23;20453;-72
2021/06/19 09:20:54;;;;;;;3.13;2.83;;;30.00;1.00;;;;;;6150447;23;20493;-72
2021/06/19 09:23:43;;;;;;;3.93;3.30;;;29.90;1.00;;;;;;6136666;23;20410;-73
2021/06/19 09:26:17;;;;;;;4.60;3.00;;;30.00;1.00;;;;;;6136694;23;20381;-73
2021/06/19 09:29:05;;;;;;;4.00;3.60;;;29.80;1.00;;;;;;6149859;23;20408;-73
2021/06/19 09:31:52;;;;;;;5.67;3.20;;;30.30;1.00;;;;;;6126088;23;20860;-72
2021/06/19 09:34:24;;;;;;;3.00;2.70;;;30.70;1.00;;;;;;6149927;23;20395;-72
2021/06/19 09:36:55;;;;;;;4.03;2.67;;;30.20;1.00;;;;;;6150203;23;20402;-73
2021/06/19 09:39:28;;;;;;;2.53;2.33;;;29.70;1.00;;;;;;6138237;23;20462;-72
2021/06/19 09:42:06;;;;;;;4.10;3.47;;;29.60;1.00;;;;;;6128978;23;20378;-72
2021/06/19 09:44:37;;;;;;;5.57;2.70;;;29.40;1.00;;;;;;6137512;23;20402;-72
2021/06/19 09:47:03;;;;;;;3.70;3.30;;;29.20;1.00;;;;;;6138971;23;20920;-72
2021/06/19 09:49:35;;;;;;;3.43;2.87;;;29.10;1.00;;;;;;6128836;23;20386;-72
2021/06/19 09:52:01;;;;;;;3.50;2.83;;;29.20;1.00;;;;;;6138450;23;20382;-72
2021/06/19 09:54:27;;;;;;;3.23;2.67;;;29.40;1.00;;;;;;6138426;23;20473;-72
2021/06/19 09:56:55;;;;;;;5.90;2.83;;;29.50;1.00;;;;;;6138452;23;20425;-73
2021/06/19 09:59:31;;;;;;;2.80;2.60;;;30.00;1.00;;;;;;6138034;23;20401;-72
2021/06/19 10:02:00;;;;;;;3.40;3.10;;;30.00;1.00;;;;;;6128816;23;20418;-72
2021/06/19 10:04:27;;;;;;;3.43;3.13;;;29.60;1.00;;;;;;6128963;23;20426;-72
2021/06/19 10:06:54;;;;;;;3.17;2.90;;;29.40;1.00;;;;;;6138317;23;20390;-72
2021/06/19 10:09:20;;;;;;;4.20;3.10;;;29.50;1.00;;;;;;6128798;23;20400;-70
2021/06/19 10:11:49;;;;;;;3.97;2.90;;;29.60;1.00;;;;;;6138495;23;20387;-70
2021/06/19 10:14:19;;;;;;;3.83;2.90;;;29.70;1.00;;;;;;6128336;23;20394;-70
2021/06/19 10:16:57;;;;;;;3.67;3.37;;;29.90;1.00;;;;;;6128729;23;20652;-70
2021/06/19 10:19:25;;;;;;;2.93;2.73;;;29.90;1.00;;;;;;6138205;23;20375;-70
2021/06/19 10:21:54;;;;;;;3.60;2.80;;;29.80;1.00;;;;;;6136557;23;20395;-71
2021/06/19 10:24:21;;;;;;;2.87;2.67;;;29.60;1.00;;;;;;6128409;23;20469;-71
2021/06/19 10:26:48;;;;;;;3.40;2.80;;;29.50;1.00;;;;;;6136899;23;20638;-69
2021/06/19 10:29:14;;;;;;;3.13;2.80;;;29.80;1.00;;;;;;6128174;23;20383;-71
2021/06/19 10:31:50;;;;;;;3.53;3.00;;;30.10;1.00;;;;;;6138170;23;20382;-67
2021/06/19 10:34:21;;;;;;;4.90;3.13;;;30.30;1.00;;;;;;6128749;23;20410;-69
2021/06/19 10:36:47;;;;;;;3.70;2.67;;;30.10;1.00;;;;;;6128677;23;20539;-70
2021/06/19 10:39:15;;;;;;;3.67;3.43;;;30.10;1.00;;;;;;6137719;23;20429;-70
2021/06/19 10:41:50;;;;;;;3.00;2.70;;;30.30;1.00;;;;;;6128267;23;20190;-70
2021/06/19 10:44:49;;;;;;;3.53;3.10;;;30.20;1.00;;;;;;6138080;23;20422;-69
2021/06/19 10:47:16;;;;;;;4.97;3.50;;;29.90;1.00;;;;;;6123669;23;20399;-71
2021/06/19 10:49:42;;;;;;;4.30;3.57;;;29.90;1.00;;;;;;6137477;23;20386;-69
2021/06/19 10:52:35;;;;;;;3.50;3.20;;;29.90;1.00;;;;;;6137894;23;20477;-67
2021/06/19 10:55:09;;;;;;;3.37;3.03;;;29.60;1.00;;;;;;6138027;23;20438;-70
2021/06/19 10:57:49;;;;;;;5.93;3.20;;;29.90;1.00;;;;;;6128354;23;20386;-70
2021/06/19 11:00:37;;;;;;;4.10;3.23;;;29.80;1.00;;;;;;6137806;23;20390;-70
2021/06/19 11:03:06;;;;;;;3.73;2.77;;;29.90;1.00;;;;;;6126876;23;20426;-70
2021/06/19 11:05:41;;;;;;;2.97;2.67;;;30.10;1.00;;;;;;6138436;23;20393;-71
2021/06/19 11:08:16;;;;;;;3.40;3.10;;;29.80;1.00;;;;;;6138170;23;20390;-68
2021/06/19 11:10:44;;;;;;;3.30;3.00;;;29.60;1.00;;;;;;6137943;23;20370;-68
2021/06/19 11:13:39;;;;;;;3.33;2.90;;;29.70;1.00;;;;;;6137741;23;20405;-68
2021/06/19 11:16:24;;;;;;;3.33;3.00;;;30.00;1.00;;;;;;6137822;23;20818;-67
2021/06/19 11:18:50;;;;;;;3.00;2.47;;;29.80;1.00;;;;;;6137123;23;20378;-68
2021/06/19 11:21:23;;;;;;;2.70;2.40;;;29.70;1.00;;;;;;6127075;23;20422;-67
2021/06/19 11:24:05;;;;;;;2.30;2.20;;;29.70;1.00;;;;;;6136596;23;20445;-67
2021/06/19 11:27:00;;;;;;;2.90;2.67;;;30.00;1.00;;;;;;6126727;23;20391;-67
2021/06/19 11:29:39;;;;;;;4.03;2.90;;;30.00;1.00;;;;;;6127753;23;20371;-67
2021/06/19 11:32:27;;;;;;;3.17;2.87;;;30.00;1.00;;;;;;6138148;23;20402;-72
2021/06/19 11:34:58;;;;;;;2.50;2.20;;;30.00;1.00;;;;;;6138035;23;20395;-73
2021/06/19 11:37:44;;;;;;;3.47;2.80;;;29.90;1.00;;;;;;6137923;23;20410;-71
2021/06/19 11:40:10;;;;;;;3.10;2.73;;;29.60;1.00;;;;;;6128041;23;20488;-72
2021/06/19 11:42:43;;;;;;;3.03;2.73;;;29.60;1.00;;;;;;6151335;23;20445;-71
2021/06/19 11:45:14;;;;;;;4.40;3.00;;;29.90;1.00;;;;;;6137787;23;20670;-70
2021/06/19 11:47:40;;;;;;;3.23;2.90;;;30.00;1.00;;;;;;6137798;23;20382;-69
2021/06/19 11:50:09;;;;;;;2.97;2.70;;;30.30;1.00;;;;;;6137517;23;20398;-67
2021/06/19 11:52:35;;;;;;;3.50;3.07;;;30.00;1.00;;;;;;6128542;23;20462;-69
2021/06/19 11:55:01;;;;;;;3.40;3.20;;;29.60;1.00;;;;;;6138320;23;20422;-68
2021/06/19 11:57:30;;;;;;;4.23;2.97;;;29.90;1.00;;;;;;6138258;23;20293;-68
2021/06/19 12:00:09;;;;;;;3.30;3.00;;;30.20;1.00;;;;;;6137747;23;20387;-67
2021/06/19 12:02:35;;;;;;;4.33;3.00;;;30.80;1.00;;;;;;6137918;23;20433;-70
2021/06/19 12:05:16;;;;;;;4.53;2.97;;;31.10;1.00;;;;;;6137790;23;20517;-70
2021/06/19 12:07:43;;;;;;;2.97;2.77;;;31.40;1.00;;;;;;6137818;23;20375;-70
2021/06/19 12:10:26;;;;;;;3.70;2.87;;;31.10;1.00;;;;;;6137724;23;20387;-69
2021/06/19 12:13:03;;;;;;;3.17;2.73;;;30.50;1.00;;;;;;6137842;23;20417;-71
2021/06/19 12:15:31;;;;;;;4.77;3.03;;;30.50;1.00;;;;;;6136822;23;20457;-71
2021/06/19 12:17:58;;;;;;;2.70;2.30;;;30.70;1.00;;;;;;6137512;23;20404;-70
2021/06/19 12:20:25;;;;;;;4.10;3.03;;;30.50;1.00;;;;;;6137487;23;20390;-71
2021/06/19 12:22:51;;;;;;;2.93;2.73;;;30.30;1.00;;;;;;6137884;23;20422;-69
2021/06/19 12:25:30;;;;;;;3.17;2.93;;;30.00;1.00;;;;;;6137489;23;20411;-67
2021/06/19 12:27:56;;;;;;;2.67;2.47;;;29.80;1.00;;;;;;6127961;23;20378;-68
2021/06/19 12:30:22;;;;;;;3.70;3.40;;;30.20;1.00;;;;;;6137426;23;20390;-71
2021/06/19 12:32:49;;;;;;;3.27;2.97;;;30.20;1.00;;;;;;6137205;23;20705;-71
2021/06/19 12:35:17;;;;;;;3.10;2.80;;;30.40;1.00;;;;;;6151078;23;20403;-68
2021/06/19 12:37:52;;;;;;;3.20;2.90;;;30.80;1.00;;;;;;6126552;23;20398;-68
2021/06/19 12:40:21;;;;;;;3.63;3.37;;;30.80;1.00;;;;;;6150402;23;20412;-67
2021/06/19 12:42:59;;;;;;;3.40;3.20;;;30.60;1.00;;;;;;6127295;23;20894;-67
2021/06/19 12:45:31;;;;;;;4.90;4.50;;;30.00;1.00;;;;;;6137491;23;20681;-67
2021/06/19 12:47:57;;;;;;;4.87;4.50;;;30.30;1.00;;;;;;6137377;23;20382;-69